createdAt,value
2023-05-11T00:00:19.208Z,0.23
2023-05-11T00:01:18.936Z,0.20
2023-05-11T00:02:19.157Z,0.40
2023-05-11T00:03:19.175Z,0.21
2023-05-11T00:04:19.156Z,0.26
2023-05-11T00:05:19.121Z,0.10
2023-05-11T00:06:19.158Z,0.11
2023-05-11T00:07:19.198Z,0.18
2023-05-11T00:08:19.214Z,0.14
2023-05-11T00:09:19.282Z,0.10
2023-05-11T00:10:19.497Z,0.15
2023-05-11T00:11:19.347Z,0.19
2023-05-11T00:12:19.376Z,0.13
2023-05-11T00:13:19.440Z,0.13
2023-05-11T00:14:19.486Z,0.23
2023-05-11T00:15:19.514Z,0.14
2023-05-11T00:16:19.610Z,0.17
2023-05-11T00:17:19.599Z,0.19
2023-05-11T00:18:19.738Z,0.17
2023-05-11T00:19:19.840Z,0.12
2023-05-11T00:20:19.967Z,0.10
2023-05-11T00:21:19.789Z,0.01
2023-05-11T00:22:19.830Z,0.24
2023-05-11T00:23:19.865Z,0.24
2023-05-11T00:24:19.924Z,0.10
2023-05-11T00:25:20.002Z,0.12
2023-05-11T00:26:20.006Z,0.19
2023-05-11T00:27:20.047Z,0.12
2023-05-11T00:28:20.066Z,0.09
2023-05-11T00:29:20.118Z,0.11
2023-05-11T00:30:20.324Z,0.07
2023-05-11T00:31:20.189Z,0.08
2023-05-11T00:32:20.234Z,0.06
2023-05-11T00:33:20.248Z,0.13
2023-05-11T00:34:20.282Z,0.10
2023-05-11T00:35:20.298Z,0.12
2023-05-11T00:36:20.349Z,0.06
2023-05-11T00:37:20.374Z,0.18
2023-05-11T00:38:20.430Z,0.09
2023-05-11T00:39:20.461Z,0.24
2023-05-11T00:40:20.601Z,0.10
2023-05-11T00:41:20.525Z,0.18
2023-05-11T00:42:20.572Z,0.16
2023-05-11T00:43:20.626Z,0.46
2023-05-11T00:44:20.672Z,0.11
2023-05-11T00:45:20.719Z,0.13
2023-05-11T00:46:20.780Z,0.19
2023-05-11T00:47:20.803Z,0.05
2023-05-11T00:48:20.850Z,0.14
2023-05-11T00:49:20.882Z,0.12
2023-05-11T00:50:20.956Z,0.08
2023-05-11T00:51:20.982Z,0.20
2023-05-11T00:52:21.057Z,0.15
2023-05-11T00:53:21.074Z,0.06
2023-05-11T00:54:21.173Z,0.09
2023-05-11T00:55:21.125Z,0.08
2023-05-11T00:56:21.179Z,0.17
2023-05-11T00:57:21.231Z,0.11
2023-05-11T00:58:21.246Z,0.16
2023-05-11T00:59:21.289Z,0.01
2023-05-11T01:00:21.442Z,0.28
2023-05-11T01:01:21.397Z,0.11
2023-05-11T01:02:21.573Z,0.09
2023-05-11T01:03:21.501Z,0.11
2023-05-11T01:04:21.510Z,0.13
2023-05-11T01:05:21.551Z,0.09
2023-05-11T01:06:21.600Z,0.12
2023-05-11T01:07:21.654Z,0.29
2023-05-11T01:08:21.678Z,0.21
2023-05-11T01:09:21.720Z,0.15
2023-05-11T01:10:21.780Z,0.14
2023-05-11T01:11:21.848Z,0.11
2023-05-11T01:12:21.869Z,0.12
2023-05-11T01:13:21.928Z,0.20
2023-05-11T01:14:21.988Z,0.05
2023-05-11T01:15:22.031Z,0.17
2023-05-11T01:16:22.074Z,0.04
2023-05-11T01:17:22.096Z,0.25
2023-05-11T01:18:22.200Z,0.13
2023-05-11T01:19:22.201Z,0.15
2023-05-11T01:20:22.224Z,0.09
2023-05-11T01:21:22.288Z,0.32
2023-05-11T01:22:22.363Z,0.18
2023-05-11T01:23:22.423Z,0.14
2023-05-11T01:24:22.439Z,0.18
2023-05-11T01:25:22.458Z,0.16
2023-05-11T01:26:22.502Z,0.09
2023-05-11T01:27:22.547Z,0.23
2023-05-11T01:28:22.606Z,0.09
2023-05-11T01:29:22.685Z,0.11
2023-05-11T01:30:22.685Z,0.06
2023-05-11T01:31:22.755Z,0.11
2023-05-11T01:32:22.843Z,0.34
2023-05-11T01:33:22.824Z,0.08
2023-05-11T01:34:22.858Z,0.17
2023-05-11T01:35:22.901Z,0.11
2023-05-11T01:36:22.957Z,0.08
2023-05-11T01:37:23.009Z,0.18
2023-05-11T01:38:23.049Z,0.07
2023-05-11T01:39:23.092Z,0.24
2023-05-11T01:40:23.132Z,0.13
2023-05-11T01:41:23.180Z,0.10
2023-05-11T01:42:23.218Z,0.21
2023-05-11T01:43:23.264Z,0.18
2023-05-11T01:44:23.335Z,0.08
2023-05-11T01:45:23.360Z,0.28
2023-05-11T01:46:23.486Z,0.04
2023-05-11T01:47:23.470Z,0.22
2023-05-11T01:48:23.512Z,0.07
2023-05-11T01:49:23.580Z,0.10
2023-05-11T01:50:23.599Z,0.03
2023-05-11T01:51:23.640Z,0.26
2023-05-11T01:52:23.699Z,0.12
2023-05-11T01:53:23.748Z,0.12
2023-05-11T01:54:23.796Z,0.38
2023-05-11T01:55:23.838Z,0.13
2023-05-11T01:56:23.887Z,0.13
2023-05-11T01:57:23.928Z,0.13
2023-05-11T01:58:24.015Z,0.09
2023-05-11T01:59:24.044Z,0.12
2023-05-11T02:00:24.064Z,0.01
2023-05-11T02:01:24.166Z,0.10
2023-05-11T02:02:24.216Z,0.21
2023-05-11T02:03:24.303Z,0.08
2023-05-11T02:04:24.285Z,0.10
2023-05-11T02:05:25.043Z,0.11
2023-05-11T02:06:24.390Z,0.08
2023-05-11T02:07:24.444Z,0.01
2023-05-11T02:08:24.489Z,0.00
2023-05-11T02:09:24.545Z,0.19
2023-05-11T02:10:24.570Z,0.14
2023-05-11T02:11:24.628Z,0.06
2023-05-11T02:12:24.661Z,0.11
2023-05-11T02:13:24.716Z,0.10
2023-05-11T02:14:24.785Z,0.11
2023-05-11T02:15:24.829Z,0.18
2023-05-11T02:16:24.908Z,0.02
2023-05-11T02:17:24.918Z,0.03
2023-05-11T02:18:24.976Z,0.04
2023-05-11T02:19:25.013Z,0.10
2023-05-11T02:20:25.078Z,0.04
2023-05-11T02:21:25.111Z,0.09
2023-05-11T02:22:25.136Z,0.03
2023-05-11T02:23:25.188Z,0.63
2023-05-11T02:24:25.215Z,0.11
2023-05-11T02:25:25.288Z,0.05
2023-05-11T02:26:25.318Z,0.13
2023-05-11T02:27:25.343Z,0.01
2023-05-11T02:28:25.408Z,0.08
2023-05-11T02:29:25.441Z,0.16
2023-05-11T02:30:25.518Z,0.10
2023-05-11T02:31:25.570Z,0.00
2023-05-11T02:32:25.660Z,0.07
2023-05-11T02:33:25.615Z,0.09
2023-05-11T02:34:25.719Z,0.05
2023-05-11T02:35:25.722Z,0.14
2023-05-11T02:36:25.763Z,0.17
2023-05-11T02:37:25.796Z,0.09
2023-05-11T02:38:25.860Z,0.07
2023-05-11T02:39:25.937Z,0.07
2023-05-11T02:40:25.956Z,0.06
2023-05-11T02:41:25.996Z,0.16
2023-05-11T02:42:26.074Z,0.00
2023-05-11T02:43:26.088Z,0.07
2023-05-11T02:44:26.128Z,0.04
2023-05-11T02:45:26.172Z,0.06
2023-05-11T02:46:26.246Z,0.14
2023-05-11T02:47:26.289Z,0.11
2023-05-11T02:48:26.303Z,0.05
2023-05-11T02:49:26.402Z,0.03
2023-05-11T02:50:26.461Z,0.09
2023-05-11T02:51:26.466Z,0.27
2023-05-11T02:52:26.512Z,0.17
2023-05-11T02:53:26.586Z,0.05
2023-05-11T02:54:26.662Z,0.04
2023-05-11T02:55:26.668Z,0.04
2023-05-11T02:56:26.724Z,0.12
2023-05-11T02:57:26.757Z,0.14
2023-05-11T02:58:26.936Z,0.09
2023-05-11T02:59:26.866Z,0.11
2023-05-11T03:00:26.944Z,0.11
2023-05-11T03:01:29.632Z,0.11
2023-05-11T03:02:27.074Z,0.09
2023-05-11T03:03:27.077Z,0.04
2023-05-11T03:04:26.954Z,0.03
2023-05-11T03:05:26.962Z,0.09
2023-05-11T03:06:26.938Z,0.18
2023-05-11T03:07:26.928Z,0.05
2023-05-11T03:08:26.909Z,0.12
2023-05-11T03:09:26.919Z,0.12
2023-05-11T03:10:26.899Z,0.13
2023-05-11T03:11:26.889Z,0.11
2023-05-11T03:12:26.889Z,0.03
2023-05-11T03:13:26.903Z,0.04
2023-05-11T03:14:26.870Z,0.15
2023-05-11T03:15:26.849Z,0.12
2023-05-11T03:16:26.916Z,0.08
2023-05-11T03:17:26.882Z,0.10
2023-05-11T03:18:26.880Z,0.07
2023-05-11T03:19:26.819Z,0.18
2023-05-11T03:20:26.817Z,0.12
2023-05-11T03:21:26.828Z,0.04
2023-05-11T03:22:26.805Z,0.05
2023-05-11T03:23:26.793Z,0.08
2023-05-11T03:24:26.822Z,0.09
2023-05-11T03:25:26.795Z,0.09
2023-05-11T03:26:26.789Z,0.24
2023-05-11T03:27:26.785Z,0.09
2023-05-11T03:28:26.762Z,0.10
2023-05-11T03:29:26.746Z,0.11
2023-05-11T03:30:26.742Z,0.04
2023-05-11T03:31:26.777Z,0.08
2023-05-11T03:32:26.788Z,0.06
2023-05-11T03:33:26.730Z,0.10
2023-05-11T03:34:26.763Z,0.00
2023-05-11T03:35:26.815Z,0.01
2023-05-11T03:36:26.826Z,0.21
2023-05-11T03:37:26.909Z,0.09
2023-05-11T03:38:26.953Z,0.09
2023-05-11T03:39:27.016Z,0.33
2023-05-11T03:40:27.055Z,0.06
2023-05-11T03:41:27.094Z,0.08
2023-05-11T03:42:27.170Z,0.09
2023-05-11T03:43:27.211Z,0.07
2023-05-11T03:44:27.287Z,0.21
2023-05-11T03:45:27.312Z,0.31
2023-05-11T03:46:27.388Z,0.19
2023-05-11T03:47:27.464Z,0.05
2023-05-11T03:48:27.510Z,0.23
2023-05-11T03:49:27.555Z,0.02
2023-05-11T03:50:27.597Z,0.12
2023-05-11T03:51:27.682Z,0.16
2023-05-11T03:52:27.711Z,0.05
2023-05-11T03:53:27.747Z,0.11
2023-05-11T03:54:27.822Z,0.02
2023-05-11T03:55:27.872Z,0.08
2023-05-11T03:56:28.001Z,0.05
2023-05-11T03:57:28.019Z,0.19
2023-05-11T03:58:28.016Z,0.05
2023-05-11T03:59:28.100Z,0.14
2023-05-11T04:00:28.162Z,0.13
2023-05-11T04:01:28.204Z,0.17
2023-05-11T04:02:28.314Z,0.05
2023-05-11T04:03:28.544Z,0.07
2023-05-11T04:04:28.449Z,0.07
2023-05-11T04:05:28.443Z,0.15
2023-05-11T04:06:28.475Z,0.16
2023-05-11T04:07:28.515Z,0.15
2023-05-11T04:08:28.598Z,0.04
2023-05-11T04:09:28.651Z,0.00
2023-05-11T04:10:28.702Z,0.03
2023-05-11T04:11:28.745Z,0.13
2023-05-11T04:12:28.795Z,0.07
2023-05-11T04:13:28.871Z,0.25
2023-05-11T04:14:28.908Z,0.00
2023-05-11T04:15:28.971Z,0.05
2023-05-11T04:16:29.053Z,0.18
2023-05-11T04:17:29.115Z,0.30
2023-05-11T04:18:29.153Z,0.10
2023-05-11T04:19:29.200Z,0.06
2023-05-11T04:20:29.256Z,0.10
2023-05-11T04:21:29.329Z,0.06
2023-05-11T04:22:29.378Z,0.05
2023-05-11T04:23:29.411Z,0.11
2023-05-11T04:24:29.495Z,0.05
2023-05-11T04:25:29.530Z,0.37
2023-05-11T04:26:29.600Z,0.13
2023-05-11T04:27:29.641Z,0.04
2023-05-11T04:28:29.695Z,0.18
2023-05-11T04:29:29.858Z,0.05
2023-05-11T04:30:29.826Z,0.06
2023-05-11T04:31:29.947Z,0.07
2023-05-11T04:32:29.949Z,0.06
2023-05-11T04:33:29.986Z,0.12
2023-05-11T04:34:30.051Z,0.15
2023-05-11T04:35:30.092Z,0.05
2023-05-11T04:36:30.151Z,0.05
2023-05-11T04:37:30.211Z,0.09
2023-05-11T04:38:30.268Z,0.39
2023-05-11T04:39:30.304Z,0.11
2023-05-11T04:40:30.366Z,0.05
2023-05-11T04:41:30.419Z,0.00
2023-05-11T04:42:30.482Z,0.36
2023-05-11T04:43:30.563Z,0.19
2023-05-11T04:44:30.607Z,0.11
2023-05-11T04:45:30.670Z,0.21
2023-05-11T04:46:30.737Z,0.08
2023-05-11T04:47:30.802Z,0.09
2023-05-11T04:48:30.833Z,0.07
2023-05-11T04:49:30.904Z,0.09
2023-05-11T04:50:30.953Z,0.04
2023-05-11T04:51:30.992Z,0.04
2023-05-11T04:52:31.066Z,0.10
2023-05-11T04:53:31.130Z,0.12
2023-05-11T04:54:31.171Z,0.06
2023-05-11T04:55:31.224Z,0.04
2023-05-11T04:56:31.273Z,0.21
2023-05-11T04:57:31.350Z,0.07
2023-05-11T04:58:31.400Z,0.19
2023-05-11T04:59:31.479Z,0.09
2023-05-11T05:00:31.532Z,0.19
2023-05-11T05:01:31.668Z,0.04
2023-05-11T05:02:31.659Z,0.16
2023-05-11T05:03:31.780Z,0.07
2023-05-11T05:04:33.494Z,0.29
2023-05-11T05:05:31.761Z,0.14
2023-05-11T05:06:31.742Z,0.12
2023-05-11T05:07:31.743Z,0.18
2023-05-11T05:08:31.735Z,0.04
2023-05-11T05:09:31.738Z,0.08
2023-05-11T05:10:31.718Z,0.08
2023-05-11T05:11:31.701Z,0.22
2023-05-11T05:12:31.693Z,0.17
2023-05-11T05:13:31.699Z,0.11
2023-05-11T05:14:31.679Z,0.08
2023-05-11T05:15:31.690Z,0.01
2023-05-11T05:16:32.569Z,0.28
2023-05-11T05:17:31.679Z,0.24
2023-05-11T05:18:31.670Z,0.06
2023-05-11T05:19:31.645Z,0.08
2023-05-11T05:20:31.650Z,0.33
2023-05-11T05:21:31.630Z,0.13
2023-05-11T05:22:31.638Z,0.02
2023-05-11T05:23:31.644Z,0.16
2023-05-11T05:24:31.653Z,0.10
2023-05-11T05:25:31.614Z,0.06
2023-05-11T05:26:31.603Z,0.09
2023-05-11T05:27:34.213Z,0.01
2023-05-11T05:28:31.586Z,0.06
2023-05-11T05:29:31.616Z,0.08
2023-05-11T05:30:31.568Z,0.12
2023-05-11T05:31:31.632Z,0.33
2023-05-11T05:32:31.570Z,0.70
2023-05-11T05:33:31.738Z,0.48
2023-05-11T05:34:31.555Z,0.89
2023-05-11T05:35:31.560Z,0.51
2023-05-11T05:36:31.531Z,0.87
2023-05-11T05:37:31.533Z,1.03
2023-05-11T05:38:31.500Z,0.91
2023-05-11T05:39:31.510Z,0.71
2023-05-11T05:40:31.510Z,1.08
2023-05-11T05:41:31.513Z,1.06
2023-05-11T05:42:31.481Z,0.92
2023-05-11T05:43:31.481Z,1.08
2023-05-11T05:44:31.485Z,0.83
2023-05-11T05:45:31.946Z,1.06
2023-05-11T05:46:31.504Z,1.12
2023-05-11T05:47:31.471Z,1.04
2023-05-11T05:48:31.447Z,1.09
2023-05-11T05:49:31.453Z,0.91
2023-05-11T05:50:31.420Z,1.28
2023-05-11T05:51:31.413Z,1.39
2023-05-11T05:52:31.414Z,1.23
2023-05-11T05:53:31.390Z,1.62
2023-05-11T05:54:31.390Z,0.84
2023-05-11T05:55:31.429Z,1.03
2023-05-11T05:56:31.388Z,1.20
2023-05-11T05:57:31.379Z,1.12
2023-05-11T05:58:31.354Z,0.94
2023-05-11T05:59:31.369Z,0.91
2023-05-11T06:00:31.447Z,0.73
2023-05-11T06:01:31.341Z,0.88
2023-05-11T06:02:31.399Z,2.09
2023-05-11T06:03:31.464Z,0.83
2023-05-11T06:04:31.338Z,1.09
2023-05-11T06:05:31.347Z,1.13
2023-05-11T06:06:31.305Z,1.27
2023-05-11T06:07:31.292Z,1.08
2023-05-11T06:08:31.297Z,1.31
2023-05-11T06:09:31.297Z,1.55
2023-05-11T06:10:31.313Z,1.34
2023-05-11T06:11:31.332Z,1.33
2023-05-11T06:12:31.380Z,1.30
2023-05-11T06:13:31.375Z,1.33
2023-05-11T06:14:31.428Z,1.53
2023-05-11T06:15:31.433Z,1.58
2023-05-11T06:16:31.502Z,1.52
2023-05-11T06:17:31.476Z,1.70
2023-05-11T06:18:31.583Z,1.20
2023-05-11T06:19:31.548Z,1.51
2023-05-11T06:20:31.942Z,1.24
2023-05-11T06:21:31.529Z,1.22
2023-05-11T06:22:31.551Z,1.56
2023-05-11T06:23:31.537Z,1.15
2023-05-11T06:24:31.553Z,1.13
2023-05-11T06:25:31.538Z,1.59
2023-05-11T06:26:31.713Z,1.39
2023-05-11T06:27:31.573Z,1.68
2023-05-11T06:28:31.548Z,1.24
2023-05-11T06:29:31.590Z,1.33
2023-05-11T06:30:31.596Z,1.23
2023-05-11T06:31:31.677Z,1.12
2023-05-11T06:32:31.644Z,1.53
2023-05-11T06:33:31.635Z,1.63
2023-05-11T06:34:31.599Z,0.98
2023-05-11T06:35:31.959Z,1.04
2023-05-11T06:36:31.624Z,1.62
2023-05-11T06:37:31.654Z,1.37
2023-05-11T06:38:31.660Z,1.56
2023-05-11T06:39:31.715Z,1.54
2023-05-11T06:40:31.987Z,1.82
2023-05-11T06:41:31.800Z,1.66
2023-05-11T06:42:31.876Z,1.66
2023-05-11T06:43:31.907Z,1.81
2023-05-11T06:44:31.974Z,1.60
2023-05-11T06:45:33.013Z,1.31
2023-05-11T06:46:32.156Z,1.54
2023-05-11T06:47:32.126Z,1.39
2023-05-11T06:48:32.168Z,1.23
2023-05-11T06:49:32.206Z,1.35
2023-05-11T06:50:32.487Z,1.48
2023-05-11T06:51:32.279Z,1.37
2023-05-11T06:52:32.313Z,1.13
2023-05-11T06:53:32.330Z,1.02
2023-05-11T06:54:32.349Z,1.11
2023-05-11T06:55:32.492Z,1.23
2023-05-11T06:56:32.421Z,1.35
2023-05-11T06:57:32.420Z,1.21
2023-05-11T06:58:32.450Z,0.97
2023-05-11T06:59:32.520Z,1.53
2023-05-11T07:00:32.478Z,1.27
2023-05-11T07:01:32.584Z,1.35
2023-05-11T07:02:32.544Z,1.05
2023-05-11T07:03:32.541Z,0.93
2023-05-11T07:04:32.578Z,0.89
2023-05-11T07:05:32.972Z,1.72
2023-05-11T07:06:32.604Z,1.31
2023-05-11T07:07:32.622Z,1.54
2023-05-11T07:08:32.631Z,1.65
2023-05-11T07:09:32.655Z,1.10
2023-05-11T07:10:32.984Z,0.71
2023-05-11T07:11:32.768Z,1.20
2023-05-11T07:12:32.787Z,1.12
2023-05-11T07:13:32.793Z,1.56
2023-05-11T07:14:32.793Z,1.04
2023-05-11T07:15:33.050Z,1.42
2023-05-11T07:16:32.859Z,1.62
2023-05-11T07:17:32.854Z,0.84
2023-05-11T07:18:32.835Z,1.93
2023-05-11T07:19:32.835Z,1.34
2023-05-11T07:20:32.985Z,1.04
2023-05-11T07:21:32.966Z,1.64
2023-05-11T07:22:32.857Z,1.39
2023-05-11T07:23:32.865Z,0.93
2023-05-11T07:24:32.850Z,1.35
2023-05-11T07:25:32.992Z,1.26
2023-05-11T07:26:32.846Z,1.07
2023-05-11T07:27:32.821Z,1.28
2023-05-11T07:28:32.824Z,1.53
2023-05-11T07:29:32.834Z,1.90
2023-05-11T07:30:32.875Z,1.39
2023-05-11T07:31:33.048Z,1.37
2023-05-11T07:32:32.889Z,1.40
2023-05-11T07:33:32.865Z,2.00
2023-05-11T07:34:32.875Z,0.93
2023-05-11T07:35:32.901Z,1.06
2023-05-11T07:36:33.035Z,0.77
2023-05-11T07:37:32.887Z,0.50
2023-05-11T07:38:32.908Z,1.03
2023-05-11T07:39:32.908Z,0.43
2023-05-11T07:40:32.936Z,0.52
2023-05-11T07:41:32.946Z,0.79
2023-05-11T07:42:32.983Z,1.07
2023-05-11T07:43:33.011Z,1.02
2023-05-11T07:44:33.063Z,1.28
2023-05-11T07:45:33.107Z,1.66
2023-05-11T07:46:33.148Z,0.87
2023-05-11T07:47:36.007Z,1.45
2023-05-11T07:48:33.191Z,1.39
2023-05-11T07:49:43.025Z,0.97
2023-05-11T07:50:34.182Z,0.86
2023-05-11T07:51:33.165Z,1.12
2023-05-11T07:52:33.153Z,1.23
2023-05-11T07:53:33.125Z,1.24
2023-05-11T07:54:33.139Z,1.33
2023-05-11T07:55:33.119Z,1.38
2023-05-11T07:56:33.485Z,1.16
2023-05-11T07:57:33.122Z,1.48
2023-05-11T07:58:33.106Z,1.23
2023-05-11T07:59:33.101Z,1.08
2023-05-11T08:00:33.098Z,1.11
2023-05-11T08:01:33.082Z,1.19
2023-05-11T08:02:33.180Z,1.45
2023-05-11T08:03:33.099Z,1.09
2023-05-11T08:04:33.050Z,0.95
2023-05-11T08:05:33.126Z,0.90
2023-05-11T08:06:33.036Z,0.96
2023-05-11T08:07:33.027Z,0.93
2023-05-11T08:08:33.038Z,1.23
2023-05-11T08:09:33.041Z,1.25
2023-05-11T08:10:33.043Z,1.50
2023-05-11T08:11:33.054Z,0.77
2023-05-11T08:12:33.041Z,0.97
2023-05-11T08:13:33.040Z,1.16
2023-05-11T08:14:33.024Z,0.71
2023-05-11T08:15:33.028Z,0.91
2023-05-11T08:16:33.533Z,0.88
2023-05-11T08:17:33.061Z,0.77
2023-05-11T08:18:33.042Z,1.15
2023-05-11T08:19:33.006Z,1.06
2023-05-11T08:20:33.493Z,1.30
2023-05-11T08:21:33.054Z,1.17
2023-05-11T08:22:33.075Z,0.83
2023-05-11T08:23:33.078Z,1.45
2023-05-11T08:24:33.085Z,1.46
2023-05-11T08:25:33.491Z,1.32
2023-05-11T08:26:33.186Z,1.09
2023-05-11T08:27:33.218Z,1.46
2023-05-11T08:28:33.214Z,0.98
2023-05-11T08:29:33.250Z,0.92
2023-05-11T08:30:33.224Z,1.15
2023-05-11T08:31:33.309Z,1.33
2023-05-11T08:32:43.317Z,0.82
2023-05-11T08:33:38.353Z,1.14
2023-05-11T08:34:33.576Z,1.10
2023-05-11T08:35:33.455Z,1.12
2023-05-11T08:36:33.463Z,1.14
2023-05-11T08:37:33.495Z,1.33
2023-05-11T08:38:33.480Z,2.37
2023-05-11T08:39:46.744Z,2.58
2023-05-11T08:40:34.534Z,2.13
2023-05-11T08:41:34.045Z,2.11
2023-05-11T08:42:33.551Z,2.33
2023-05-11T08:43:33.512Z,2.40
2023-05-11T08:44:33.537Z,2.03
2023-05-11T08:45:33.516Z,1.82
2023-05-11T08:46:33.525Z,2.10
2023-05-11T08:47:33.496Z,1.86
2023-05-11T08:48:33.499Z,2.08
2023-05-11T08:49:33.492Z,1.50
2023-05-11T08:50:33.598Z,2.01
2023-05-11T08:51:33.501Z,1.74
2023-05-11T08:52:33.479Z,1.73
2023-05-11T08:53:33.472Z,1.74
2023-05-11T08:54:33.440Z,1.86
2023-05-11T08:55:33.461Z,1.70
2023-05-11T08:56:33.433Z,1.74
2023-05-11T08:57:33.430Z,2.49
2023-05-11T08:58:33.406Z,2.14
2023-05-11T08:59:33.418Z,2.10
2023-05-11T09:00:33.410Z,1.76
2023-05-11T09:01:33.532Z,2.14
2023-05-11T09:02:33.497Z,1.42
2023-05-11T09:03:33.442Z,1.75
2023-05-11T09:04:33.497Z,1.58
2023-05-11T09:05:33.592Z,1.82
2023-05-11T09:06:34.005Z,1.16
2023-05-11T09:07:33.662Z,1.55
2023-05-11T09:08:34.484Z,1.27
2023-05-11T09:09:33.798Z,1.57
2023-05-11T09:10:33.840Z,0.83
2023-05-11T09:11:34.008Z,1.27
2023-05-11T09:12:33.941Z,1.08
2023-05-11T09:13:33.993Z,1.40
2023-05-11T09:14:34.037Z,0.97
2023-05-11T09:16:37.492Z,1.13
2023-05-11T09:17:34.145Z,1.69
2023-05-11T09:18:34.076Z,1.47
2023-05-11T09:19:34.089Z,1.01
2023-05-11T09:20:34.064Z,1.44
2023-05-11T09:21:34.052Z,2.08
2023-05-11T09:22:36.191Z,3.62
2023-05-11T09:23:34.291Z,3.15
2023-05-11T09:24:34.338Z,1.76
2023-05-11T09:25:34.350Z,1.98
2023-05-11T09:26:34.540Z,1.56
2023-05-11T09:27:34.396Z,1.67
2023-05-11T09:29:34.404Z,1.65
2023-05-11T09:30:34.420Z,2.72
2023-05-11T09:31:34.535Z,3.48
2023-05-11T09:32:34.533Z,2.34
2023-05-11T09:33:34.580Z,2.04
2023-05-11T09:34:34.593Z,1.91
2023-05-11T09:35:34.657Z,1.85
2023-05-11T09:36:35.023Z,1.96
2023-05-11T09:37:34.766Z,1.55
2023-05-11T09:38:34.839Z,1.28
2023-05-11T09:39:42.059Z,1.09
2023-05-11T09:40:36.038Z,1.15
2023-05-11T09:41:35.619Z,1.16
2023-05-11T09:42:34.887Z,0.97
2023-05-11T09:43:34.862Z,1.24
2023-05-11T09:44:34.875Z,1.14
2023-05-11T09:45:34.837Z,1.38
2023-05-11T09:46:35.087Z,0.93
2023-05-11T09:47:34.863Z,0.94
2023-05-11T09:48:34.809Z,1.01
2023-05-11T09:49:34.877Z,0.69
2023-05-11T09:50:34.927Z,1.28
2023-05-11T09:51:35.067Z,0.88
2023-05-11T09:52:35.037Z,0.87
2023-05-11T09:53:35.140Z,0.83
2023-05-11T09:54:35.173Z,0.69
2023-05-11T09:55:35.217Z,0.96
2023-05-11T09:56:35.306Z,1.33
2023-05-11T09:57:35.340Z,1.10
2023-05-11T09:58:35.382Z,0.86
2023-05-11T09:59:35.439Z,0.97
2023-05-11T10:00:35.520Z,1.26
2023-05-11T10:01:35.626Z,1.01
2023-05-11T10:02:35.657Z,1.56
2023-05-11T10:03:35.727Z,1.53
2023-05-11T10:04:35.708Z,1.40
2023-05-11T10:05:35.715Z,1.11
2023-05-11T10:06:35.745Z,1.37
2023-05-11T10:07:35.756Z,1.13
2023-05-11T10:08:35.753Z,1.31
2023-05-11T10:09:35.769Z,1.38
2023-05-11T10:10:35.791Z,0.94
2023-05-11T10:11:35.799Z,1.07
2023-05-11T10:12:35.785Z,1.07
2023-05-11T10:13:35.815Z,0.88
2023-05-11T10:14:35.805Z,0.67
2023-05-11T10:15:35.806Z,0.93
2023-05-11T10:16:35.866Z,0.83
2023-05-11T10:17:35.834Z,0.83
2023-05-11T10:18:35.876Z,0.69
2023-05-11T10:19:35.808Z,0.88
2023-05-11T10:20:35.813Z,0.84
2023-05-11T10:21:35.821Z,0.84
2023-05-11T10:22:35.859Z,0.73
2023-05-11T10:23:35.837Z,0.59
2023-05-11T10:24:35.845Z,1.26
2023-05-11T10:25:35.859Z,1.14
2023-05-11T10:26:35.879Z,0.99
2023-05-11T10:27:35.888Z,0.99
2023-05-11T10:28:35.865Z,0.86
2023-05-11T10:29:35.880Z,0.88
2023-05-11T10:30:35.892Z,0.95
2023-05-11T10:31:35.916Z,0.87
2023-05-11T10:32:36.008Z,0.98
2023-05-11T10:33:35.974Z,0.75
2023-05-11T10:34:36.030Z,1.16
2023-05-11T10:35:36.096Z,0.76
2023-05-11T10:36:36.130Z,0.96
2023-05-11T10:37:36.561Z,1.02
2023-05-11T10:38:36.192Z,0.87
2023-05-11T10:39:36.193Z,0.77
2023-05-11T10:40:36.197Z,0.93
2023-05-11T10:41:36.187Z,0.74
2023-05-11T10:42:36.249Z,1.64
2023-05-11T10:43:36.212Z,1.13
2023-05-11T10:44:36.251Z,0.87
2023-05-11T10:45:36.352Z,1.34
2023-05-11T10:46:36.350Z,2.11
2023-05-11T10:47:36.462Z,1.28
2023-05-11T10:48:36.489Z,1.77
2023-05-11T10:49:36.533Z,1.45
2023-05-11T10:50:36.599Z,1.18
2023-05-11T10:51:36.651Z,1.38
2023-05-11T10:52:36.717Z,1.92
2023-05-11T10:53:36.762Z,1.59
2023-05-11T10:54:36.805Z,2.05
2023-05-11T10:55:36.842Z,1.62
2023-05-11T10:56:36.891Z,1.88
2023-05-11T10:57:36.965Z,2.18
2023-05-11T10:58:36.954Z,1.32
2023-05-11T10:59:37.015Z,2.06
2023-05-11T11:00:37.041Z,1.59
2023-05-11T11:01:37.144Z,2.13
2023-05-11T11:02:37.122Z,0.87
2023-05-11T11:03:37.089Z,1.64
2023-05-11T11:04:37.124Z,1.65
2023-05-11T11:05:37.168Z,1.61
2023-05-11T11:06:37.140Z,0.96
2023-05-11T11:07:37.557Z,2.50
2023-05-11T11:08:37.199Z,1.53
2023-05-11T11:09:37.206Z,1.73
2023-05-11T11:10:37.245Z,2.29
2023-05-11T11:11:37.274Z,2.00
2023-05-11T11:12:37.594Z,2.11
2023-05-11T11:13:37.302Z,1.77
2023-05-11T11:14:37.323Z,3.15
2023-05-11T11:15:37.349Z,3.16
2023-05-11T11:16:37.403Z,3.03
2023-05-11T11:17:37.576Z,3.47
2023-05-11T11:18:37.487Z,1.48
2023-05-11T11:19:37.456Z,2.61
2023-05-11T11:20:37.499Z,1.67
2023-05-11T11:21:37.518Z,1.78
2023-05-11T11:22:37.555Z,1.43
2023-05-11T11:23:37.576Z,1.84
2023-05-11T11:24:37.594Z,2.08
2023-05-11T11:25:37.655Z,2.03
2023-05-11T11:26:37.699Z,2.05
2023-05-11T11:27:37.747Z,2.48
2023-05-11T11:28:37.792Z,1.61
2023-05-11T11:29:37.834Z,2.20
2023-05-11T11:30:37.867Z,1.96
2023-05-11T11:31:37.982Z,1.35
2023-05-11T11:32:37.990Z,1.95
2023-05-11T11:33:37.993Z,2.30
2023-05-11T11:34:38.023Z,1.80
2023-05-11T11:35:38.082Z,1.57
2023-05-11T11:36:38.124Z,1.94
2023-05-11T11:37:38.154Z,2.00
2023-05-11T11:38:38.194Z,1.34
2023-05-11T11:39:38.206Z,0.79
2023-05-11T11:40:49.547Z,1.53
2023-05-11T11:41:39.269Z,1.05
2023-05-11T11:42:38.226Z,1.05
2023-05-11T11:43:38.217Z,1.40
2023-05-11T11:44:38.215Z,1.37
2023-05-11T11:45:38.218Z,1.06
2023-05-11T11:46:38.252Z,1.45
2023-05-11T11:47:38.220Z,1.27
2023-05-11T11:48:38.217Z,1.04
2023-05-11T11:49:38.197Z,0.99
2023-05-11T11:50:38.214Z,1.36
2023-05-11T11:51:38.181Z,1.14
2023-05-11T11:52:38.168Z,1.19
2023-05-11T11:53:38.427Z,1.85
2023-05-11T11:54:38.161Z,1.55
2023-05-11T11:55:38.137Z,1.28
2023-05-11T11:56:38.174Z,1.07
2023-05-11T11:57:38.210Z,1.55
2023-05-11T11:58:38.216Z,0.79
2023-05-11T11:59:38.241Z,1.05
2023-05-11T12:00:38.277Z,1.11
2023-05-11T12:01:38.294Z,0.60
2023-05-11T12:02:38.358Z,1.40
2023-05-11T12:03:38.578Z,1.15
2023-05-11T12:04:38.388Z,1.13
2023-05-11T12:05:38.387Z,1.03
2023-05-11T12:06:38.397Z,1.27
2023-05-11T12:07:38.433Z,1.09
2023-05-11T12:08:38.468Z,1.50
2023-05-11T12:09:38.500Z,0.77
2023-05-11T12:10:38.533Z,0.87
2023-05-11T12:11:38.559Z,0.86
2023-05-11T12:12:38.533Z,0.94
2023-05-11T12:13:38.612Z,0.81
2023-05-11T12:14:38.586Z,0.99
2023-05-11T12:15:38.616Z,0.63
2023-05-11T12:16:38.634Z,0.64
2023-05-11T12:17:38.812Z,0.63
2023-05-11T12:18:38.706Z,1.10
2023-05-11T12:19:38.707Z,1.06
2023-05-11T12:20:38.732Z,0.64
2023-05-11T12:21:38.730Z,0.85
2023-05-11T12:22:38.762Z,0.75
2023-05-11T12:23:38.781Z,0.76
2023-05-11T12:24:38.794Z,0.66
2023-05-11T12:25:38.863Z,0.50
2023-05-11T12:26:38.876Z,1.35
2023-05-11T12:27:38.900Z,0.51
2023-05-11T12:28:38.931Z,0.68
2023-05-11T12:29:38.927Z,0.72
2023-05-11T12:30:38.963Z,1.95
2023-05-11T12:31:39.043Z,1.71
2023-05-11T12:32:39.047Z,1.06
2023-05-11T12:33:39.085Z,0.97
2023-05-11T12:34:39.078Z,1.12
2023-05-11T12:35:39.102Z,1.40
2023-05-11T12:36:39.110Z,1.32
2023-05-11T12:37:39.151Z,1.00
2023-05-11T12:38:39.166Z,0.95
2023-05-11T12:39:39.195Z,0.92
2023-05-11T12:40:39.204Z,0.73
2023-05-11T12:41:39.207Z,0.95
2023-05-11T12:42:39.217Z,0.99
2023-05-11T12:43:39.238Z,1.16
2023-05-11T12:44:39.208Z,1.20
2023-05-11T12:45:39.268Z,0.97
2023-05-11T12:46:39.451Z,0.87
2023-05-11T12:47:39.351Z,0.92
2023-05-11T12:48:39.371Z,0.59
2023-05-11T12:49:39.421Z,0.73
2023-05-11T12:50:39.491Z,0.71
2023-05-11T12:51:39.549Z,0.77
2023-05-11T12:52:39.597Z,0.80
2023-05-11T12:53:39.649Z,0.81
2023-05-11T12:54:39.685Z,0.95
2023-05-11T12:55:39.771Z,0.48
2023-05-11T12:56:39.770Z,0.89
2023-05-11T12:57:39.811Z,0.89
2023-05-11T12:58:39.843Z,0.71
2023-05-11T12:59:39.881Z,0.80
2023-05-11T13:00:39.873Z,0.70
2023-05-11T13:01:39.930Z,0.79
2023-05-11T13:02:40.036Z,0.89
2023-05-11T13:03:40.080Z,0.53
2023-05-11T13:04:39.966Z,0.86
2023-05-11T13:05:40.002Z,0.68
2023-05-11T13:06:40.130Z,0.73
2023-05-11T13:07:40.131Z,0.85
2023-05-11T13:08:40.084Z,0.63
2023-05-11T13:09:40.084Z,0.54
2023-05-11T13:10:40.111Z,0.52
2023-05-11T13:11:40.150Z,0.57
2023-05-11T13:12:40.179Z,0.51
2023-05-11T13:13:40.264Z,0.96
2023-05-11T13:14:40.238Z,0.79
2023-05-11T13:15:40.277Z,0.89
2023-05-11T13:16:40.277Z,0.71
2023-05-11T13:17:40.339Z,0.65
2023-05-11T13:18:40.424Z,0.47
2023-05-11T13:19:40.333Z,0.58
2023-05-11T13:20:40.355Z,0.69